.
WxDataArchive / Data Records for 2010-05-29
2010-05-28 May 2010 2010-05-30

Data Records for Saturday, 29 May 2010

Time	Temp	Chill	HIndex	Humid	Dewpt	 Wind 	HiWind	WindDir	Rain 	Barom 
-----	----	-----	------	-----	-----	------	------	-------	-----	----- 
00:00	73.9	73.9	73.9	69	63.1	1	4	90	0.00	29.925 
00:05	73.9	73.9	73.9	69	63.1	0	3	90	0.00	29.925 
00:10	73.7	73.7	73.7	70	63.3	0	0	---	0.00	29.925 
00:15	73.5	73.5	73.5	71	63.5	0	0	---	0.00	29.926 
00:20	73.3	73.3	73.3	72	63.7	0	1	90	0.00	29.926 
00:25	73.2	73.2	73.2	72	63.6	0	0	---	0.00	29.926 
00:30	73.2	73.2	73.2	72	63.6	0	1	90	0.00	29.928 
00:35	73.2	73.2	73.2	72	63.6	0	1	90	0.00	29.928 
00:40	73.0	73.0	73.0	73	63.8	0	0	---	0.00	29.928 
00:45	73.0	73.0	73.0	73	63.8	0	2	90	0.00	29.927 
00:50	73.0	73.0	73.0	72	63.4	1	5	90	0.00	29.927 
00:55	73.2	73.2	73.2	72	63.6	1	4	112	0.00	29.927 
01:00	73.2	73.2	73.2	72	63.6	0	2	112	0.00	29.927 
01:05	73.0	73.0	73.0	72	63.4	0	1	112	0.00	29.927 
01:10	73.0	73.0	73.0	72	63.4	1	3	112	0.00	29.927 
01:15	73.0	73.0	73.0	72	63.4	0	2	112	0.00	29.927 
01:20	73.0	73.0	73.0	73	63.8	1	3	112	0.00	29.927 
01:25	73.0	73.0	73.0	71	63.0	1	4	112	0.00	29.927 
01:30	73.2	73.2	73.2	70	62.8	1	4	112	0.00	29.930 
01:35	73.5	73.5	73.5	70	63.1	2	4	90	0.00	29.930 
01:40	73.5	73.5	73.5	71	63.5	1	3	90	0.00	29.930 
01:45	73.5	73.5	73.5	71	63.5	1	4	90	0.00	29.928 
01:50	73.3	73.3	73.3	71	63.3	0	2	90	0.00	29.928 
01:55	73.2	73.2	73.2	71	63.2	1	3	90	0.00	29.928 
02:00	73.0	73.0	73.0	72	63.4	1	3	90	0.00	29.919 
02:05	72.7	72.7	72.7	72	63.1	1	6	90	0.00	29.919 
02:10	72.5	72.5	72.5	73	63.3	1	6	112	0.00	29.919 
02:15	72.3	72.3	72.3	74	63.5	0	3	112	0.00	29.911 
02:20	72.1	72.1	72.1	75	63.7	0	2	112	0.00	29.911 
02:25	71.8	71.8	71.8	76	63.8	0	1	112	0.00	29.911 
02:30	71.6	71.6	71.6	76	63.6	0	2	112	0.00	29.912 
02:35	71.3	71.3	71.3	77	63.7	0	2	112	0.00	29.912 
02:40	70.9	70.9	70.9	77	63.3	0	0	---	0.00	29.912 
02:45	70.8	70.8	70.8	78	63.6	0	0	---	0.00	29.912 
02:50	70.4	70.4	70.4	78	63.2	0	1	112	0.00	29.912 
02:55	70.3	70.3	70.3	78	63.1	0	0	---	0.00	29.912 
03:00	69.9	69.9	69.9	79	63.1	0	1	112	0.00	29.914 
03:05	69.8	69.8	69.8	79	63.0	0	1	112	0.00	29.914 
03:10	69.6	69.6	69.6	80	63.1	0	0	---	0.00	29.914 
03:15	69.4	69.4	69.4	80	63.0	0	1	112	0.00	29.915 
03:20	69.3	69.3	69.3	80	62.9	0	0	---	0.00	29.915 
03:25	69.1	69.1	69.1	80	62.7	0	0	---	0.00	29.915 
03:30	68.9	68.9	68.9	80	62.5	0	0	---	0.00	29.915 
03:35	68.8	68.8	68.8	81	62.7	0	0	---	0.00	29.915 
03:40	68.6	68.6	68.6	81	62.5	0	1	112	0.00	29.915 
03:45	68.4	68.4	68.4	81	62.3	0	0	---	0.00	29.925 
03:50	68.1	68.1	68.1	81	62.0	0	0	---	0.00	29.925 
03:55	67.9	67.9	67.9	81	61.8	0	0	---	0.00	29.925 
04:00	67.8	67.8	67.8	82	62.1	0	2	112	0.00	29.915 
04:05	67.8	67.8	67.8	81	61.7	0	1	112	0.00	29.915 
04:10	67.6	67.6	67.6	81	61.6	0	0	---	0.00	29.915 
04:15	67.4	67.4	67.4	81	61.4	0	0	---	0.00	29.918 
04:20	67.3	67.3	67.3	81	61.3	0	0	---	0.00	29.918 
04:25	67.1	67.1	67.1	81	61.1	0	0	---	0.00	29.918 
04:30	66.8	66.8	66.8	81	60.8	0	0	---	0.00	29.927 
04:35	66.6	66.6	66.6	81	60.6	0	0	---	0.00	29.927 
04:40	66.4	66.4	66.4	81	60.4	0	0	---	0.00	29.927 
04:45	66.3	66.3	66.3	81	60.3	0	0	---	0.00	29.928 
04:50	66.3	66.3	66.3	81	60.3	0	2	112	0.00	29.928 
04:55	66.6	66.6	66.6	80	60.2	0	2	112	0.00	29.928 
05:00	66.8	66.8	66.8	80	60.4	0	2	112	0.00	29.927 
05:05	66.8	66.8	66.8	79	60.1	0	1	112	0.00	29.927 
05:10	66.9	66.9	66.9	79	60.2	0	2	112	0.00	29.927 
05:15	66.8	66.8	66.8	79	60.1	0	1	112	0.00	29.928 
05:20	66.6	66.6	66.6	80	60.2	0	0	---	0.00	29.928 
05:25	66.4	66.4	66.4	80	60.0	0	0	---	0.00	29.928 
05:30	66.1	66.1	66.1	81	60.1	0	0	---	0.00	29.929 
05:35	66.0	66.0	66.0	81	60.0	0	0	---	0.00	29.929 
05:40	65.6	65.6	65.6	81	59.6	0	0	---	0.00	29.929 
05:45	65.5	65.5	65.5	82	59.9	0	0	---	0.00	29.927 
05:50	65.2	65.2	65.2	83	59.9	0	0	---	0.00	29.927 
05:55	65.0	65.0	65.0	83	59.7	0	0	---	0.00	29.927 
06:00	64.8	64.8	64.8	83	59.5	0	0	---	0.00	29.925 
06:05	64.7	64.7	64.7	84	59.7	0	0	---	0.00	29.925 
06:10	64.5	64.5	64.5	84	59.6	0	0	---	0.00	29.925 
06:15	64.3	64.3	64.3	84	59.4	0	0	---	0.00	29.935 
06:20	64.2	64.2	64.2	85	59.6	0	0	---	0.00	29.935 
06:25	64.0	64.0	64.0	85	59.4	0	0	---	0.00	29.935 
06:30	64.0	64.0	64.0	86	59.7	0	0	---	0.00	29.935 
06:35	63.9	63.9	63.9	86	59.6	0	0	---	0.00	29.935 
06:40	63.9	63.9	63.9	86	59.6	0	0	---	0.00	29.935 
06:45	63.7	63.7	63.7	86	59.4	0	0	---	0.00	29.939 
06:50	63.7	63.7	63.7	87	59.8	0	0	---	0.00	29.939 
06:55	63.9	63.9	63.9	87	59.9	0	0	---	0.00	29.939 
07:00	63.9	63.9	63.9	87	59.9	0	0	---	0.00	29.948 
07:05	63.9	63.9	63.9	87	59.9	0	0	---	0.00	29.948 
07:10	64.0	64.0	64.0	87	60.0	0	0	---	0.00	29.948 
07:15	64.3	64.3	64.3	87	60.3	0	2	112	0.00	29.947 
07:20	64.8	64.8	64.8	86	60.5	0	0	---	0.00	29.947 
07:25	65.5	65.5	65.5	84	60.5	0	0	---	0.00	29.947 
07:30	66.1	66.1	66.1	83	60.8	0	1	112	0.00	29.946 
07:35	67.1	67.1	67.1	80	60.7	0	1	112	0.00	29.946 
07:40	67.9	67.9	67.9	78	60.8	0	0	---	0.00	29.946 
07:45	68.6	68.6	68.6	77	61.1	0	1	112	0.00	29.948 
07:50	69.3	69.3	69.3	75	61.0	0	1	112	0.00	29.948 
07:55	69.8	69.8	69.8	74	61.1	0	3	112	0.00	29.948 
08:00	70.3	70.3	70.3	73	61.2	1	3	112	0.00	29.948 
08:05	70.6	70.6	70.6	72	61.1	0	3	112	0.00	29.948 
08:10	70.8	70.8	70.8	71	60.9	1	4	112	0.00	29.948 
08:15	70.9	70.9	70.9	72	61.4	1	3	112	0.00	29.955 
08:20	71.1	71.1	71.1	71	61.2	1	5	112	0.00	29.955 
08:25	71.3	71.3	71.3	70	61.0	1	3	90	0.00	29.955 
08:30	71.6	71.6	71.6	71	61.7	1	3	90	0.00	29.960 
08:35	71.8	71.8	71.8	68	60.7	2	4	90	0.00	29.960 
08:40	72.1	72.1	72.1	68	60.9	1	3	135	0.00	29.960 
08:45	72.7	72.7	72.7	66	60.7	1	4	45	0.00	29.961 
08:50	73.0	73.0	73.0	65	60.5	1	3	45	0.00	29.961 
08:55	73.3	73.3	73.3	63	59.9	1	3	45	0.00	29.961 
09:00	73.9	73.9	73.9	62	60.0	1	4	112	0.00	29.962 
09:05	74.2	74.2	74.2	61	59.9	1	3	112	0.00	29.962 
09:10	74.6	74.6	74.6	60	59.8	1	4	112	0.00	29.962 
09:15	74.6	74.6	74.6	59	59.3	2	6	112	0.00	29.973 
09:20	74.4	74.4	74.4	58	58.6	2	4	112	0.00	29.973 
09:25	74.4	74.4	74.4	59	59.1	2	4	112	0.00	29.973 
09:30	74.6	74.6	74.6	58	58.8	2	5	90	0.00	29.974 
09:35	74.7	74.7	74.7	55	57.4	2	6	112	0.00	29.974 
09:40	74.9	74.9	74.9	54	57.1	2	4	112	0.00	29.974 
09:45	75.3	75.3	77.7	54	57.5	1	4	112	0.00	29.979 
09:50	75.6	75.6	77.9	54	57.8	2	5	90	0.00	29.979 
09:55	75.8	75.8	78.0	55	58.5	2	4	90	0.00	29.979 
10:00	76.0	76.0	78.1	52	57.1	2	4	90	0.00	29.978 
10:05	76.0	76.0	78.1	54	58.1	2	5	90	0.00	29.978 
10:10	76.3	76.3	78.3	54	58.4	1	5	112	0.00	29.978 
10:15	76.7	76.7	78.5	53	58.3	1	4	90	0.00	29.979 
10:20	77.2	77.2	78.7	49	56.5	2	5	112	0.00	29.979 
10:25	77.6	77.6	79.0	52	58.6	0	2	112	0.00	29.979 
10:30	77.9	77.9	79.2	50	57.7	1	4	135	0.00	29.979 
10:35	78.3	78.3	79.3	47	56.4	1	5	112	0.00	29.979 
10:40	78.3	78.3	79.5	51	58.7	1	5	135	0.00	29.979 
10:45	78.6	78.6	79.7	50	58.4	2	6	90	0.00	29.977 
10:50	79.0	79.0	80.0	50	58.7	0	3	135	0.00	29.977 
10:55	79.4	79.4	80.1	48	58.0	2	5	112	0.00	29.977 
11:00	79.4	79.4	80.1	47	57.4	1	5	68	0.00	29.976 
11:05	79.6	79.6	80.2	47	57.6	1	4	112	0.00	29.976 
11:10	79.9	79.9	80.4	46	57.2	1	3	112	0.00	29.976 
11:15	80.1	80.1	80.4	45	56.8	2	5	112	0.00	29.968 
11:20	80.5	80.5	80.9	47	58.4	1	3	112	0.00	29.968 
11:25	80.7	80.7	80.7	43	56.1	2	5	112	0.00	29.968 
11:30	80.7	80.7	80.9	45	57.4	1	5	112	0.00	29.965 
11:35	81.1	81.1	81.1	44	57.1	1	5	112	0.00	29.965 
11:40	81.4	81.4	81.4	44	57.4	1	3	112	0.00	29.965 
11:45	81.6	81.6	81.6	44	57.5	1	4	112	0.00	29.962 
11:50	81.8	81.8	81.8	44	57.7	1	2	112	0.00	29.962 
11:55	81.8	81.8	81.5	42	56.4	1	4	112	0.00	29.962 
12:00	82.0	82.0	81.6	41	55.9	1	3	90	0.00	29.960 
12:05	82.2	82.2	81.9	42	56.8	1	4	90	0.00	29.960 
12:10	82.6	82.6	82.1	41	56.5	1	4	112	0.00	29.960 
12:15	82.6	82.6	82.2	42	57.2	1	6	90	0.00	29.961 
12:20	82.8	82.8	82.6	43	58.0	2	4	112	0.00	29.961 
12:25	83.0	83.0	82.9	44	58.8	1	6	112	0.00	29.961 
12:30	83.4	83.4	83.8	47	61.0	0	4	112	0.00	29.959 
12:35	83.4	83.4	82.6	39	55.8	1	5	112	0.00	29.959 
12:40	83.4	83.4	83.3	44	59.2	1	3	90	0.00	29.959 
12:45	83.4	83.4	83.2	43	58.5	1	7	90	0.00	29.959 
12:50	83.6	83.6	83.7	45	60.0	1	4	90	0.00	29.959 
12:55	83.8	83.8	83.4	42	58.2	1	5	112	0.00	29.959 
13:00	83.8	83.8	83.1	40	56.9	1	2	112	0.00	29.958 
13:05	83.8	83.8	83.7	44	59.5	1	6	112	0.00	29.958 
13:10	84.0	84.0	84.0	44	59.7	1	5	112	0.00	29.958 
13:15	84.0	84.0	84.0	44	59.7	1	3	112	0.00	29.958 
13:20	84.1	84.1	83.2	39	56.4	2	6	112	0.00	29.958 
13:25	84.1	84.1	83.7	42	58.5	1	5	90	0.00	29.958 
13:30	84.3	84.3	83.9	42	58.7	1	4	135	0.00	29.956 
13:35	84.5	84.5	84.7	45	60.8	0	3	135	0.00	29.956 
13:40	84.5	84.5	84.9	46	61.4	1	5	112	0.00	29.956 
13:45	84.5	84.5	84.1	42	58.9	1	6	90	0.00	29.951 
13:50	84.5	84.5	84.5	44	60.2	1	5	112	0.00	29.951 
13:55	84.7	84.7	84.2	41	58.4	1	5	135	0.00	29.951 
14:00	84.3	84.3	84.5	45	60.6	0	4	292	0.00	29.947 
14:05	84.5	84.5	84.9	46	61.4	1	4	68	0.00	29.947 
14:10	84.7	84.7	84.0	40	57.7	3	7	112	0.00	29.947 
14:15	84.7	84.7	84.2	41	58.4	1	4	135	0.00	29.945 
14:20	84.7	84.7	84.7	44	60.3	2	6	112	0.00	29.945 
14:25	84.9	84.9	84.0	39	57.1	2	5	112	0.00	29.945 
14:30	84.9	84.9	84.2	40	57.8	1	7	90	0.00	29.944 
14:35	85.1	85.1	85.0	43	60.1	1	4	112	0.00	29.944 
14:40	84.9	84.9	84.2	40	57.8	1	3	112	0.00	29.944 
14:45	85.1	85.1	85.2	44	60.7	1	6	112	0.00	29.941 
14:50	85.3	85.3	85.2	43	60.2	1	4	135	0.00	29.941 
14:55	85.5	85.5	85.5	43	60.4	0	3	0	0.00	29.941 
15:00	85.5	85.5	85.3	42	59.8	1	4	112	0.00	29.941 
15:05	85.5	85.5	85.1	41	59.1	1	3	292	0.00	29.941 
15:10	85.7	85.7	85.3	41	59.3	1	4	90	0.00	29.941 
15:15	85.7	85.7	84.9	39	57.9	2	6	90	0.00	29.939 
15:20	85.9	85.9	85.5	41	59.4	1	3	90	0.00	29.939 
15:25	85.9	85.9	85.3	40	58.7	0	2	135	0.00	29.939 
15:30	85.9	85.9	85.5	41	59.4	0	3	135	0.00	29.931 
15:35	85.9	85.9	85.1	39	58.0	1	5	112	0.00	29.931 
15:40	86.1	86.1	85.8	41	59.6	1	5	112	0.00	29.931 
15:45	85.9	85.9	85.5	41	59.4	0	4	112	0.00	29.930 
15:50	85.9	85.9	85.5	41	59.4	0	2	135	0.00	29.930 
15:55	85.9	85.9	84.9	38	57.3	1	4	292	0.00	29.930 
16:00	86.1	86.1	85.2	38	57.5	1	4	270	0.00	29.928 
16:05	86.3	86.3	85.4	38	57.7	2	6	112	0.00	29.928 
16:10	86.3	86.3	86.2	42	60.5	1	4	112	0.00	29.928 
16:15	86.3	86.3	86.2	42	60.5	1	5	112	0.00	29.925 
16:20	86.3	86.3	85.2	37	56.9	1	4	112	0.00	29.925 
16:25	86.5	86.5	85.8	39	58.6	1	3	135	0.00	29.925 
16:30	86.3	86.3	86.0	41	59.8	0	4	135	0.00	29.921 
16:35	86.3	86.3	86.0	41	59.8	1	5	135	0.00	29.921 
16:40	86.3	86.3	85.8	40	59.1	1	5	112	0.00	29.921 
16:45	86.3	86.3	86.2	42	60.5	0	4	90	0.00	29.922 
16:50	86.1	86.1	85.4	39	58.2	1	4	90	0.00	29.922 
16:55	86.1	86.1	85.4	39	58.2	0	1	90	0.00	29.922 
17:00	86.1	86.1	85.8	41	59.6	0	3	90	0.00	29.920 
17:05	86.3	86.3	85.6	39	58.4	1	4	112	0.00	29.920 
17:10	86.3	86.3	85.2	37	56.9	0	2	112	0.00	29.920 
17:15	86.1	86.1	85.6	40	58.9	0	1	112	0.00	29.918 
17:20	86.3	86.3	85.2	37	56.9	0	3	112	0.00	29.918 
17:25	86.1	86.1	85.2	38	57.5	0	3	112	0.00	29.918 
17:30	86.1	86.1	85.2	38	57.5	1	4	112	0.00	29.917 
17:35	86.1	86.1	84.8	36	56.0	1	3	112	0.00	29.917 
17:40	85.9	85.9	84.7	37	56.6	1	3	112	0.00	29.917 
17:45	85.9	85.9	85.1	39	58.0	0	2	112	0.00	29.918 
17:50	85.7	85.7	84.5	37	56.4	0	2	112	0.00	29.918 
17:55	85.7	85.7	85.1	40	58.6	0	3	135	0.00	29.918 
18:00	85.3	85.3	84.3	38	56.8	0	1	135	0.00	29.918 
18:05	84.9	84.9	83.7	37	55.7	0	2	135	0.00	29.918 
18:10	84.7	84.7	83.4	36	54.8	0	1	135	0.00	29.918 
18:15	84.5	84.5	83.5	38	56.1	1	3	90	0.00	29.920 
18:20	84.3	84.3	83.1	37	55.2	0	2	112	0.00	29.920 
18:25	84.3	84.3	83.8	41	58.0	0	3	112	0.00	29.920 
18:30	84.1	84.1	83.2	39	56.4	0	3	112	0.00	29.920 
18:35	84.0	84.0	83.0	38	55.6	0	1	112	0.00	29.920 
18:40	84.0	84.0	83.1	39	56.3	0	1	112	0.00	29.920 
18:45	83.8	83.8	83.2	41	57.6	0	3	112	0.00	29.917 
18:50	83.8	83.8	82.9	39	56.2	1	4	112	0.00	29.917 
18:55	83.6	83.6	82.6	38	55.3	2	7	112	0.00	29.917 
19:00	83.6	83.6	83.0	41	57.4	1	4	112	0.00	29.916 
19:05	83.4	83.4	83.2	43	58.5	1	4	68	0.00	29.916 
19:10	83.2	83.2	83.1	44	59.0	0	0	---	0.00	29.916 
19:15	83.0	83.0	82.6	42	57.5	0	3	90	0.00	29.913 
19:20	82.8	82.8	82.6	43	58.0	1	4	90	0.00	29.913 
19:25	82.8	82.8	82.6	43	58.0	0	2	90	0.00	29.913 
19:30	82.6	82.6	82.5	44	58.4	0	1	90	0.00	29.912 
19:35	82.6	82.6	82.5	44	58.4	1	3	90	0.00	29.912 
19:40	82.4	82.4	82.3	44	58.3	1	4	90	0.00	29.912 
19:45	82.2	82.2	82.1	44	58.1	0	2	135	0.00	29.913 
19:50	82.0	82.0	82.2	46	59.1	1	5	90	0.00	29.913 
19:55	82.0	82.0	82.3	47	59.8	0	2	90	0.00	29.913 
20:00	81.8	81.8	82.3	48	60.2	0	0	---	0.00	29.914 
20:05	81.6	81.6	81.9	47	59.4	0	1	90	0.00	29.914 
20:10	81.4	81.4	82.0	49	60.4	0	1	90	0.00	29.914 
20:15	81.2	81.2	81.9	50	60.8	0	1	90	0.00	29.913 
20:20	80.9	80.9	81.6	50	60.5	0	1	90	0.00	29.913 
20:25	80.5	80.5	81.2	49	59.6	0	3	90	0.00	29.913 
20:30	80.3	80.3	81.0	49	59.4	0	1	90	0.00	29.913 
20:35	80.1	80.1	80.9	50	59.8	0	1	90	0.00	29.913 
20:40	79.8	79.8	80.6	50	59.5	0	0	---	0.00	29.913 
20:45	79.4	79.4	80.3	50	59.1	0	0	---	0.00	29.913 
20:50	79.2	79.2	80.1	50	58.9	0	1	90	0.00	29.913 
20:55	78.8	78.8	79.9	51	59.1	0	1	90	0.00	29.913 
21:00	78.5	78.5	79.6	51	58.8	0	0	---	0.00	29.912 
21:05	78.1	78.1	79.4	51	58.5	0	0	---	0.00	29.912 
21:10	77.9	77.9	79.3	52	58.8	0	1	90	0.00	29.912 
21:15	77.6	77.6	79.1	53	59.1	0	2	90	0.00	29.911 
21:20	77.6	77.6	79.0	52	58.6	0	2	90	0.00	29.911 
21:25	77.4	77.4	78.9	52	58.4	0	1	90	0.00	29.911 
21:30	77.2	77.2	78.7	50	57.1	1	4	90	0.00	29.914 
21:35	77.0	77.0	78.6	49	56.4	1	3	90	0.00	29.914 
21:40	77.0	77.0	78.5	48	55.8	0	1	90	0.00	29.914 
21:45	76.8	76.8	78.5	49	56.2	0	0	---	0.00	29.917 
21:50	76.5	76.5	78.3	49	55.9	0	0	---	0.00	29.917 
21:55	76.3	76.3	78.2	48	55.1	0	2	90	0.00	29.917 
22:00	76.0	76.0	78.1	49	55.4	0	3	90	0.00	29.919 
22:05	75.8	75.8	78.0	49	55.3	0	1	90	0.00	29.919 
22:10	75.6	75.6	77.9	49	55.1	0	2	90	0.00	29.919 
22:15	75.3	75.3	77.7	50	55.4	0	1	90	0.00	29.916 
22:20	75.1	75.1	77.7	50	55.2	0	2	90	0.00	29.916 
22:25	74.9	74.9	74.9	51	55.5	0	0	---	0.00	29.916 
22:30	74.6	74.6	74.6	52	55.8	0	0	---	0.00	29.918 
22:35	74.0	74.0	74.0	53	55.8	0	0	---	0.00	29.918 
22:40	73.7	73.7	73.7	53	55.5	0	0	---	0.00	29.918 
22:45	73.2	73.2	73.2	54	55.5	0	0	---	0.00	29.922 
22:50	72.8	72.8	72.8	54	55.2	0	0	---	0.00	29.922 
22:55	72.7	72.7	72.7	55	55.6	0	0	---	0.00	29.922 
23:00	72.3	72.3	72.3	55	55.2	0	0	---	0.00	29.929 
23:05	72.0	72.0	72.0	56	55.4	0	0	---	0.00	29.929 
23:10	71.8	71.8	71.8	56	55.2	0	0	---	0.00	29.929 
23:15	71.6	71.6	71.6	56	55.1	0	0	---	0.00	29.926 
23:20	71.5	71.5	71.5	56	55.0	0	0	---	0.00	29.926 
23:25	71.1	71.1	71.1	57	55.1	0	0	---	0.00	29.926 
23:30	70.9	70.9	70.9	57	54.9	0	0	---	0.00	29.930 
23:35	70.6	70.6	70.6	58	55.1	0	0	---	0.00	29.930 
23:40	70.4	70.4	70.4	58	54.9	0	0	---	0.00	29.930 
23:45	70.1	70.1	70.1	59	55.1	0	0	---	0.00	29.930 
23:50	69.8	69.8	69.8	59	54.8	0	0	---	0.00	29.930 
23:55	69.4	69.4	69.4	60	54.9	0	0	---	0.00	29.930 

CoCoRaHS
IN-AL-39
A2 Web Hosting
Creative Commons License
GoDaddy
search engine by freefind advanced

loaded 2018-11-15 05:25:30 • last modified 2010-11-18 10:43:29
Privacy PolicyDisclaimer
• wx.awcolley.com is powered by PmWiki v.2002016 •
• all content (unless otherwise noted) © 2018 A W Colley